PWSweather.com
Personal Weather Stations
Station Observations
UISISLE1
Newport, Isle ofWight, ISLE OF WIGHT PO30 2JX

NewportIsle ofWight, ISLE OF WIGHT PO30 2JX

Lat: 50.72, Lon: -1.27

Elevation: 45

Station Type: Davis Vantage Pro Plus

http://www.isleofwightweather.co.uk

High Low Average
Temperature 67.6°F19.8°F 58.0°F14.4°F 62.2°F16.8°F
Dew Point 59.5°F15.3°F 53.5°F11.9°F 56.8°F13.8°F
Winds 13.6 mph WNW21.9 mph WNW 0.8 mph 1.3 mph 6.9 mph 11.1 mph
Wind Gusts 22.0 mph35.4 mph 2.0 mph3.2 mph 11.7 mph18.8 mph
Humidity 89% 72% 83%
Pressure 29.80 in1009.10 in 29.74 in1007.10 in -
Precipitation 0.00 in0.00 in - -
Hour Temp Dew Point Humidity Winds Wind Gusts Pressure Precip Precip Rate Daily Precip Total
12:00 AM 58.7°F14.8°C 53.5°F11.9°C 83% 3.8 mph W6.1 kmh W 6.0 mph9.7 kmh 29.77 in1008.1 mb - 0.00 in0.0 mm 0.00 in0.0 mm
12:15 AM 58.6°F14.8°C 53.8°F12.1°C 84% 4.6 mph WSW7.4 kmh WSW 6.0 mph9.7 kmh 29.78 in1008.5 mb - 0.00 in0.0 mm 0.00 in0.0 mm
12:30 AM 58.6°F14.8°C 53.8°F12.1°C 84% 4.3 mph W6.9 kmh W 6.0 mph9.7 kmh 29.77 in1008.1 mb - 0.00 in0.0 mm 0.00 in0.0 mm
12:45 AM 58.5°F14.7°C 53.7°F12.1°C 84% 2.7 mph WSW4.3 kmh WSW 3.0 mph4.8 kmh 29.77 in1008.1 mb - 0.00 in0.0 mm 0.00 in0.0 mm
01:00 AM 58.4°F14.7°C 53.9°F12.2°C 85% 3.3 mph W5.3 kmh W 10.0 mph16.1 kmh 29.78 in1008.5 mb - 0.00 in0.0 mm 0.00 in0.0 mm
01:15 AM 58.3°F14.6°C 53.8°F12.1°C 85% 3.9 mph WSW6.3 kmh WSW 8.0 mph12.9 kmh 29.77 in1008.1 mb - 0.00 in0.0 mm 0.00 in0.0 mm
01:30 AM 58.2°F14.6°C 53.7°F12.1°C 85% 2.7 mph W4.3 kmh W 4.1 mph6.6 kmh 29.77 in1008.1 mb - 0.00 in0.0 mm 0.00 in0.0 mm
01:45 AM 58.1°F14.5°C 53.9°F12.2°C 86% 3.9 mph SW6.3 kmh SW 5.0 mph8.0 kmh 29.78 in1008.5 mb - 0.00 in0.0 mm 0.00 in0.0 mm
02:00 AM 58.1°F14.5°C 53.9°F12.2°C 86% 4.3 mph W6.9 kmh W 7.0 mph11.3 kmh 29.77 in1008.1 mb - 0.00 in0.0 mm 0.00 in0.0 mm
02:15 AM 58.0°F14.4°C 53.8°F12.1°C 86% 5.0 mph WNW8.0 kmh WNW 8.2 mph13.2 kmh 29.77 in1008.1 mb - 0.00 in0.0 mm 0.00 in0.0 mm
02:30 AM 58.0°F14.4°C 53.8°F12.1°C 86% 2.8 mph WSW4.5 kmh WSW 7.0 mph11.3 kmh 29.77 in1008.1 mb - 0.00 in0.0 mm 0.00 in0.0 mm
02:45 AM 58.1°F14.5°C 53.9°F12.2°C 86% 3.0 mph WSW4.8 kmh WSW 5.0 mph8.0 kmh 29.77 in1008.1 mb - 0.00 in0.0 mm 0.00 in0.0 mm
03:00 AM 58.1°F14.5°C 53.9°F12.2°C 86% 1.9 mph W3.1 kmh W 4.0 mph6.4 kmh 29.76 in1007.8 mb - 0.00 in0.0 mm 0.00 in0.0 mm
03:15 AM 58.1°F14.5°C 54.2°F12.3°C 87% 2.5 mph W4.0 kmh W 5.0 mph8.0 kmh 29.77 in1008.1 mb - 0.00 in0.0 mm 0.00 in0.0 mm
03:30 AM 58.1°F14.5°C 54.2°F12.3°C 87% 1.6 mph W2.6 kmh W 3.0 mph4.8 kmh 29.77 in1008.1 mb - 0.00 in0.0 mm 0.00 in0.0 mm
03:45 AM 58.1°F14.5°C 54.3°F12.4°C 87% 3.8 mph SW6.1 kmh SW 7.0 mph11.3 kmh 29.76 in1007.8 mb - 0.00 in0.0 mm 0.00 in0.0 mm
04:00 AM 58.2°F14.6°C 54.3°F12.4°C 87% 3.4 mph SW5.5 kmh SW 5.0 mph8.0 kmh 29.76 in1007.8 mb - 0.00 in0.0 mm 0.00 in0.0 mm
04:15 AM 58.2°F14.6°C 54.7°F12.6°C 88% 2.8 mph SW4.5 kmh SW 6.2 mph10.0 kmh 29.76 in1007.8 mb - 0.00 in0.0 mm 0.00 in0.0 mm
04:30 AM 58.2°F14.6°C 54.7°F12.6°C 88% 3.3 mph SW5.3 kmh SW 7.0 mph11.3 kmh 29.77 in1008.1 mb - 0.00 in0.0 mm 0.00 in0.0 mm
04:45 AM 58.2°F14.6°C 54.7°F12.6°C 88% 2.1 mph SW3.4 kmh SW 5.0 mph8.0 kmh 29.77 in1008.1 mb - 0.00 in0.0 mm 0.00 in0.0 mm
05:00 AM 58.2°F14.6°C 54.7°F12.6°C 88% 2.0 mph WNW3.2 kmh WNW 6.0 mph9.7 kmh 29.77 in1008.1 mb - 0.00 in0.0 mm 0.00 in0.0 mm
05:15 AM 58.2°F14.6°C 55.0°F12.8°C 89% 0.8 mph SW1.3 kmh SW 2.0 mph3.2 kmh 29.77 in1008.1 mb - 0.00 in0.0 mm 0.00 in0.0 mm
05:30 AM 58.3°F14.6°C 55.1°F12.8°C 89% 2.3 mph WSW3.7 kmh WSW 4.0 mph6.4 kmh 29.76 in1007.8 mb - 0.00 in0.0 mm 0.00 in0.0 mm
05:45 AM 58.5°F14.7°C 55.2°F12.9°C 89% 3.5 mph SW5.6 kmh SW 5.0 mph8.0 kmh 29.77 in1008.1 mb - 0.00 in0.0 mm 0.00 in0.0 mm
06:00 AM 58.7°F14.8°C 55.5°F13.1°C 89% 2.8 mph SW4.5 kmh SW 5.0 mph8.0 kmh 29.77 in1008.1 mb - 0.00 in0.0 mm 0.00 in0.0 mm
06:15 AM 59.0°F15.0°C 55.8°F13.2°C 89% 2.3 mph W3.7 kmh W 6.0 mph9.7 kmh 29.78 in1008.5 mb - 0.00 in0.0 mm 0.00 in0.0 mm
06:30 AM 59.4°F15.2°C 56.2°F13.4°C 89% 3.5 mph W5.6 kmh W 6.2 mph10.0 kmh 29.77 in1008.1 mb - 0.00 in0.0 mm 0.00 in0.0 mm
06:45 AM 60.1°F15.6°C 56.5°F13.6°C 88% 5.8 mph SW9.3 kmh SW 7.2 mph11.6 kmh 29.78 in1008.5 mb - 0.00 in0.0 mm 0.00 in0.0 mm
07:00 AM 60.7°F15.9°C 56.8°F13.8°C 87% 4.5 mph WSW7.2 kmh WSW 10.3 mph16.6 kmh 29.78 in1008.5 mb - 0.00 in0.0 mm 0.00 in0.0 mm
07:15 AM 61.2°F16.2°C 57.0°F13.9°C 86% 6.7 mph SW10.8 kmh SW 10.0 mph16.1 kmh 29.77 in1008.1 mb - 0.00 in0.0 mm 0.00 in0.0 mm
07:30 AM 61.5°F16.4°C 56.6°F13.7°C 84% 3.8 mph SW6.1 kmh SW 8.0 mph12.9 kmh 29.78 in1008.5 mb - 0.00 in0.0 mm 0.00 in0.0 mm
07:45 AM 61.7°F16.5°C 56.8°F13.8°C 84% 6.1 mph WSW9.8 kmh WSW 10.3 mph16.6 kmh 29.78 in1008.5 mb - 0.00 in0.0 mm 0.00 in0.0 mm
08:00 AM 61.9°F16.6°C 56.6°F13.7°C 83% 4.2 mph W6.8 kmh W 12.0 mph19.3 kmh 29.77 in1008.1 mb - 0.00 in0.0 mm 0.00 in0.0 mm
08:15 AM 62.1°F16.7°C 56.9°F13.8°C 83% 5.6 mph W9.0 kmh W 9.3 mph15.0 kmh 29.77 in1008.1 mb - 0.00 in0.0 mm 0.00 in0.0 mm
08:30 AM 62.5°F16.9°C 57.3°F14.1°C 83% 9.1 mph W14.6 kmh W 10.0 mph16.1 kmh 29.77 in1008.1 mb - 0.00 in0.0 mm 0.00 in0.0 mm
08:45 AM 63.3°F17.4°C 57.7°F14.3°C 82% 7.8 mph SSW12.6 kmh SSW 14.0 mph22.5 kmh 29.77 in1008.1 mb - 0.00 in0.0 mm 0.00 in0.0 mm
09:00 AM 63.5°F17.5°C 58.2°F14.6°C 83% 6.4 mph WSW10.3 kmh WSW 13.0 mph20.9 kmh 29.77 in1008.1 mb - 0.00 in0.0 mm 0.00 in0.0 mm
09:15 AM 63.3°F17.4°C 57.4°F14.1°C 81% 6.6 mph WSW10.6 kmh WSW 12.4 mph20.0 kmh 29.76 in1007.8 mb - 0.00 in0.0 mm 0.00 in0.0 mm
09:30 AM 63.5°F17.5°C 57.9°F14.4°C 82% 7.5 mph W12.1 kmh W 15.0 mph24.1 kmh 29.76 in1007.8 mb - 0.00 in0.0 mm 0.00 in0.0 mm
09:45 AM 64.1°F17.8°C 58.5°F14.7°C 82% 8.0 mph SW12.9 kmh SW 11.0 mph17.7 kmh 29.76 in1007.8 mb - 0.00 in0.0 mm 0.00 in0.0 mm
10:00 AM 64.6°F18.1°C 58.6°F14.8°C 81% 6.3 mph SW10.1 kmh SW 9.0 mph14.5 kmh 29.76 in1007.8 mb - 0.00 in0.0 mm 0.00 in0.0 mm
10:15 AM 65.4°F18.6°C 58.7°F14.8°C 79% 7.6 mph WSW12.2 kmh WSW 13.0 mph20.9 kmh 29.76 in1007.8 mb - 0.00 in0.0 mm 0.00 in0.0 mm
10:30 AM 66.0°F18.9°C 58.9°F14.9°C 78% 7.4 mph S11.9 kmh S 11.0 mph17.7 kmh 29.76 in1007.8 mb - 0.00 in0.0 mm 0.00 in0.0 mm
10:45 AM 65.9°F18.8°C 58.8°F14.9°C 78% 6.2 mph SW10.0 kmh SW 10.0 mph16.1 kmh 29.76 in1007.8 mb - 0.00 in0.0 mm 0.00 in0.0 mm
11:00 AM 65.7°F18.7°C 58.6°F14.8°C 78% 8.8 mph WNW14.2 kmh WNW 11.3 mph18.2 kmh 29.76 in1007.8 mb - 0.00 in0.0 mm 0.00 in0.0 mm
11:15 AM 65.0°F18.3°C 57.9°F14.4°C 78% 11.2 mph SW18.0 kmh SW 14.0 mph22.5 kmh 29.76 in1007.8 mb - 0.00 in0.0 mm 0.00 in0.0 mm
11:30 AM 64.8°F18.2°C 58.8°F14.9°C 81% 8.4 mph WSW13.5 kmh WSW 15.0 mph24.1 kmh 29.76 in1007.8 mb - 0.00 in0.0 mm 0.00 in0.0 mm
11:45 AM 64.7°F18.2°C 58.8°F14.9°C 81% 8.8 mph SW14.2 kmh SW 14.0 mph22.5 kmh 29.76 in1007.8 mb - 0.00 in0.0 mm 0.00 in0.0 mm
12:00 PM 64.9°F18.3°C 58.6°F14.8°C 80% 7.8 mph S12.6 kmh S 12.0 mph19.3 kmh 29.75 in1007.5 mb - 0.00 in0.0 mm 0.00 in0.0 mm
12:15 PM 64.5°F18.1°C 58.2°F14.6°C 80% 6.4 mph SW10.3 kmh SW 16.0 mph25.7 kmh 29.75 in1007.5 mb - 0.00 in0.0 mm 0.00 in0.0 mm
12:30 PM 64.7°F18.2°C 58.4°F14.7°C 80% 8.4 mph SW13.5 kmh SW 13.0 mph20.9 kmh 29.75 in1007.5 mb - 0.00 in0.0 mm 0.00 in0.0 mm
12:45 PM 65.8°F18.8°C 59.5°F15.3°C 80% 10.7 mph W17.2 kmh W 18.5 mph29.8 kmh 29.75 in1007.5 mb - 0.00 in0.0 mm 0.00 in0.0 mm
01:00 PM 66.6°F19.2°C 57.7°F14.3°C 73% 10.6 mph WNW17.1 kmh WNW 14.0 mph22.5 kmh 29.75 in1007.5 mb - 0.00 in0.0 mm 0.00 in0.0 mm
01:15 PM 66.9°F19.4°C 58.0°F14.4°C 73% 12.3 mph WSW19.8 kmh WSW 20.0 mph32.2 kmh 29.75 in1007.5 mb - 0.00 in0.0 mm 0.00 in0.0 mm
01:30 PM 67.0°F19.4°C 58.1°F14.5°C 73% 9.0 mph WSW14.5 kmh WSW 12.4 mph20.0 kmh 29.75 in1007.5 mb - 0.00 in0.0 mm 0.00 in0.0 mm
01:45 PM 67.6°F19.8°C 58.6°F14.8°C 73% 8.2 mph WSW13.2 kmh WSW 14.4 mph23.2 kmh 29.75 in1007.5 mb - 0.00 in0.0 mm 0.00 in0.0 mm
02:00 PM 67.6°F19.8°C 58.2°F14.6°C 72% 11.0 mph SSW17.7 kmh SSW 15.5 mph24.9 kmh 29.75 in1007.5 mb - 0.00 in0.0 mm 0.00 in0.0 mm
02:15 PM 67.3°F19.6°C 58.3°F14.6°C 73% 11.9 mph SW19.2 kmh SW 21.0 mph33.8 kmh 29.75 in1007.5 mb - 0.00 in0.0 mm 0.00 in0.0 mm
02:30 PM 66.5°F19.2°C 57.9°F14.4°C 74% 13.6 mph WNW21.9 kmh WNW 20.6 mph33.2 kmh 29.75 in1007.5 mb - 0.00 in0.0 mm 0.00 in0.0 mm
02:45 PM 66.4°F19.1°C 58.6°F14.8°C 76% 10.3 mph WSW16.6 kmh WSW 14.0 mph22.5 kmh 29.75 in1007.5 mb - 0.00 in0.0 mm 0.00 in0.0 mm
03:00 PM 67.0°F19.4°C 59.2°F15.1°C 76% 10.7 mph SW17.2 kmh SW 22.0 mph35.4 kmh 29.75 in1007.5 mb - 0.00 in0.0 mm 0.00 in0.0 mm
03:15 PM 66.5°F19.2°C 57.9°F14.4°C 74% 10.7 mph SW17.2 kmh SW 19.0 mph30.6 kmh 29.75 in1007.5 mb - 0.00 in0.0 mm 0.00 in0.0 mm
03:30 PM 65.7°F18.7°C 57.6°F14.2°C 75% 12.2 mph SW19.6 kmh SW 14.0 mph22.5 kmh 29.75 in1007.5 mb - 0.00 in0.0 mm 0.00 in0.0 mm
03:45 PM 65.7°F18.7°C 58.7°F14.8°C 78% 12.0 mph SW19.3 kmh SW 20.0 mph32.2 kmh 29.75 in1007.5 mb - 0.00 in0.0 mm 0.00 in0.0 mm
04:00 PM 65.8°F18.8°C 58.4°F14.7°C 77% 8.9 mph SW14.3 kmh SW 15.5 mph24.9 kmh 29.75 in1007.5 mb - 0.00 in0.0 mm 0.00 in0.0 mm
04:15 PM 65.4°F18.6°C 58.0°F14.4°C 77% 11.5 mph SW18.5 kmh SW 16.0 mph25.7 kmh 29.75 in1007.5 mb - 0.00 in0.0 mm 0.00 in0.0 mm
04:30 PM 65.3°F18.5°C 57.9°F14.4°C 77% 12.6 mph S20.3 kmh S 22.0 mph35.4 kmh 29.75 in1007.5 mb - 0.00 in0.0 mm 0.00 in0.0 mm
04:45 PM 65.0°F18.3°C 58.0°F14.4°C 78% 10.9 mph SSW17.5 kmh SSW 21.0 mph33.8 kmh 29.75 in1007.5 mb - 0.00 in0.0 mm 0.00 in0.0 mm
05:00 PM 64.9°F18.3°C 58.6°F14.8°C 80% 12.4 mph W20.0 kmh W 19.0 mph30.6 kmh 29.75 in1007.5 mb - 0.00 in0.0 mm 0.00 in0.0 mm
05:15 PM 64.6°F18.1°C 58.3°F14.6°C 80% 10.4 mph SSW16.7 kmh SSW 17.0 mph27.4 kmh 29.75 in1007.5 mb - 0.00 in0.0 mm 0.00 in0.0 mm
05:30 PM 64.4°F18.0°C 57.7°F14.3°C 79% 10.7 mph SW17.2 kmh SW 17.0 mph27.4 kmh 29.74 in1007.1 mb - 0.00 in0.0 mm 0.00 in0.0 mm
05:45 PM 64.0°F17.8°C 57.7°F14.3°C 80% 9.8 mph W15.8 kmh W 20.0 mph32.2 kmh 29.75 in1007.5 mb - 0.00 in0.0 mm 0.00 in0.0 mm
06:00 PM 64.1°F17.8°C 57.8°F14.3°C 80% 8.7 mph WSW14.0 kmh WSW 15.0 mph24.1 kmh 29.75 in1007.5 mb - 0.00 in0.0 mm 0.00 in0.0 mm
06:15 PM 63.9°F17.7°C 57.6°F14.2°C 80% 10.5 mph SW16.9 kmh SW 19.0 mph30.6 kmh 29.75 in1007.5 mb - 0.00 in0.0 mm 0.00 in0.0 mm
06:30 PM 63.5°F17.5°C 57.6°F14.2°C 81% 10.7 mph WSW17.2 kmh WSW 15.0 mph24.1 kmh 29.75 in1007.5 mb - 0.00 in0.0 mm 0.00 in0.0 mm
06:45 PM 63.2°F17.3°C 57.6°F14.2°C 82% 5.0 mph SSW8.0 kmh SSW 12.4 mph20.0 kmh 29.76 in1007.8 mb - 0.00 in0.0 mm 0.00 in0.0 mm
07:00 PM 63.0°F17.2°C 57.4°F14.1°C 82% 7.9 mph SW12.7 kmh SW 13.0 mph20.9 kmh 29.76 in1007.8 mb - 0.00 in0.0 mm 0.00 in0.0 mm
07:15 PM 62.8°F17.1°C 57.6°F14.2°C 83% 9.2 mph WSW14.8 kmh WSW 18.0 mph29.0 kmh 29.77 in1008.1 mb - 0.00 in0.0 mm 0.00 in0.0 mm
07:30 PM 62.6°F17.0°C 57.7°F14.3°C 84% 5.9 mph WSW9.5 kmh WSW 12.0 mph19.3 kmh 29.77 in1008.1 mb - 0.00 in0.0 mm 0.00 in0.0 mm
07:45 PM 62.3°F16.8°C 57.4°F14.1°C 84% 10.0 mph WSW16.1 kmh WSW 18.0 mph29.0 kmh 29.77 in1008.1 mb - 0.00 in0.0 mm 0.00 in0.0 mm
08:00 PM 62.0°F16.7°C 57.4°F14.1°C 85% 7.9 mph WSW12.7 kmh WSW 16.5 mph26.6 kmh 29.77 in1008.1 mb - 0.00 in0.0 mm 0.00 in0.0 mm
08:15 PM 61.8°F16.6°C 57.2°F14.0°C 85% 10.0 mph WSW16.1 kmh WSW 13.0 mph20.9 kmh 29.77 in1008.1 mb - 0.00 in0.0 mm 0.00 in0.0 mm
08:30 PM 61.5°F16.4°C 56.9°F13.8°C 85% 5.5 mph WSW8.9 kmh WSW 11.0 mph17.7 kmh 29.77 in1008.1 mb - 0.00 in0.0 mm 0.00 in0.0 mm
08:45 PM 61.3°F16.3°C 57.1°F13.9°C 86% 7.7 mph W12.4 kmh W 11.0 mph17.7 kmh 29.78 in1008.5 mb - 0.00 in0.0 mm 0.00 in0.0 mm
09:00 PM 61.2°F16.2°C 57.0°F13.9°C 86% 7.3 mph W11.7 kmh W 13.4 mph21.6 kmh 29.78 in1008.5 mb - 0.00 in0.0 mm 0.00 in0.0 mm
09:15 PM 61.2°F16.2°C 57.0°F13.9°C 86% 11.0 mph WSW17.7 kmh WSW 15.5 mph24.9 kmh 29.79 in1008.8 mb - 0.00 in0.0 mm 0.00 in0.0 mm
09:30 PM 61.3°F16.3°C 57.1°F13.9°C 86% 6.3 mph WSW10.1 kmh WSW 13.0 mph20.9 kmh 29.78 in1008.5 mb - 0.00 in0.0 mm 0.00 in0.0 mm
09:45 PM 61.1°F16.2°C 56.9°F13.8°C 86% 9.1 mph WSW14.6 kmh WSW 15.5 mph24.9 kmh 29.78 in1008.5 mb - 0.00 in0.0 mm 0.00 in0.0 mm
10:00 PM 61.2°F16.2°C 57.0°F13.9°C 86% 8.7 mph SW14.0 kmh SW 18.0 mph29.0 kmh 29.78 in1008.5 mb - 0.00 in0.0 mm 0.00 in0.0 mm
10:15 PM 61.0°F16.1°C 56.8°F13.8°C 86% 6.3 mph SW10.1 kmh SW 10.3 mph16.6 kmh 29.78 in1008.5 mb - 0.00 in0.0 mm 0.00 in0.0 mm
10:30 PM 60.8°F16.0°C 56.9°F13.8°C 87% 6.5 mph W10.5 kmh W 12.4 mph20.0 kmh 29.78 in1008.5 mb - 0.00 in0.0 mm 0.00 in0.0 mm
10:45 PM 60.5°F15.8°C 56.6°F13.7°C 87% 6.3 mph W10.1 kmh W 10.0 mph16.1 kmh 29.78 in1008.5 mb - 0.00 in0.0 mm 0.00 in0.0 mm
11:00 PM 60.4°F15.8°C 56.5°F13.6°C 87% 4.9 mph WSW7.9 kmh WSW 10.0 mph16.1 kmh 29.79 in1008.8 mb - 0.00 in0.0 mm 0.00 in0.0 mm
11:15 PM 60.3°F15.7°C 56.5°F13.6°C 87% 5.1 mph WSW8.2 kmh WSW 6.2 mph10.0 kmh 29.79 in1008.8 mb - 0.00 in0.0 mm 0.00 in0.0 mm
11:30 PM 60.2°F15.7°C 56.4°F13.6°C 87% 5.2 mph W8.4 kmh W 9.0 mph14.5 kmh 29.80 in1009.1 mb - 0.00 in0.0 mm 0.00 in0.0 mm
11:45 PM 60.1°F15.6°C 56.5°F13.6°C 88% 5.3 mph WSW8.5 kmh WSW 8.0 mph12.9 kmh 29.79 in1008.8 mb - 0.00 in0.0 mm 0.00 in0.0 mm